Carre Das — FGG8212 — position and weather

sailwx.info

Track history (hours):
 
Tides and Currents Weather Stations Pressure Air Temp Water Temp Dewpoint Dewpoint Depression Visibility Wind Speed Wind Dir Waves Ship Positions

Carre Das

Last reported at 2018-May-25 13:58 UTC. Time now 2018-Jun-18 23:17 UTC.
Position N 47°30' W 002°28'.
Warning: this ship's position is 24 days out of date.

Length 14 m.

Type: Sailing vessel. MMSI: 227052570.

Date/timePositionNaut miles runAvg speedWind from/ knotsBaromVisibWave heightAir tempDewpointWater temp
2018-May-25 13:58N 47°30' W 002°28'3 6.1
2018-May-25 13:30N 47°30' W 002°32'3 6.7
2018-May-25 13:01N 47°28' W 002°36'4 7.4
2018-May-25 12:30N 47°27' W 002°41'4 7.0
2018-May-25 12:00N 47°26' W 002°47'8 0.5
2018-May-24 20:18N 47°23' W 002°57'0 0.0
2018-May-24 19:51N 47°23' W 002°57'0 0.0
2018-May-24 18:06N 47°23' W 002°57'0 0.1
2018-May-24 16:09N 47°23' W 002°57'2 5.5
2018-May-24 15:47N 47°21' W 002°55'2 0.1
2018-May-23 17:05N 47°21' W 002°53'3 2.4
2018-May-23 16:03N 47°22' W 002°56'0 5.5
2018-May-23 16:00N 47°22' W 002°56'1 0.0
2018-May-22 18:47N 47°23' W 002°57'0 0.0
2018-May-22 18:26N 47°23' W 002°57'0 0.0
2018-May-22 17:59N 47°23' W 002°57'0 0.0
2018-May-22 17:29N 47°23' W 002°57'0 0.0
2018-May-22 16:59N 47°23' W 002°57'0 0.0
2018-May-22 16:26N 47°23' W 002°57'0 0.0
2018-May-22 15:59N 47°23' W 002°57'0 0.0
2018-May-22 15:29N 47°23' W 002°57'0 0.0
2018-May-22 14:56N 47°23' W 002°57'0 0.0
2018-May-22 14:29N 47°23' W 002°57'0 0.0
2018-May-22 13:56N 47°23' W 002°57'0 0.0
2018-May-22 13:26N 47°23' W 002°57'0 0.0
2018-May-22 12:50N 47°23' W 002°57'0 0.0
2018-May-22 12:29N 47°23' W 002°57'0 0.0
2018-May-22 11:56N 47°23' W 002°57'0 0.0
2018-May-22 11:14N 47°23' W 002°57'0 0.0
2018-May-22 00:44N 47°23' W 002°57'0 0.0
2018-May-21 17:53N 47°23' W 002°57'0 0.0
2018-May-21 17:23N 47°23' W 002°57'0 0.0
2018-May-21 16:59N 47°23' W 002°57'0 0.0
2018-May-21 16:26N 47°23' W 002°57'0 0.0
2018-May-21 15:56N 47°23' W 002°57'0 0.0
2018-May-21 15:29N 47°23' W 002°57'0 0.0
2018-May-21 14:35N 47°23' W 002°57'0 0.0
2018-May-21 14:29N 47°23' W 002°57'2 0.5
2018-May-21 10:04N 47°24' W 002°54'1 6.4
2018-May-21 09:57N 47°24' W 002°53'3 6.2
2018-May-21 09:29N 47°25' W 002°49'  
Track history (hours):
 
Tides and Currents Weather Stations Pressure Air Temp Water Temp Dewpoint Dewpoint Depression Visibility Wind Speed Wind Dir Waves Ship Positions

Carre Das

Last reported at 2018-May-25 13:58 UTC. Time now 2018-Jun-18 23:17 UTC.
Position N 47°30' W 002°28'.
Warning: this ship's position is 24 days out of date.

Length 14 m.

Type: Sailing vessel. MMSI: 227052570.

Date/timePositionNaut miles runAvg speedWind from/ knotsBaromVisibWave heightAir tempDewpointWater temp
2018-May-25 13:58N 47°30' W 002°28'3 6.1
2018-May-25 13:30N 47°30' W 002°32'3 6.7
2018-May-25 13:01N 47°28' W 002°36'4 7.4
2018-May-25 12:30N 47°27' W 002°41'4 7.0
2018-May-25 12:00N 47°26' W 002°47'8 0.5
2018-May-24 20:18N 47°23' W 002°57'0 0.0
2018-May-24 19:51N 47°23' W 002°57'0 0.0
2018-May-24 18:06N 47°23' W 002°57'0 0.1
2018-May-24 16:09N 47°23' W 002°57'2 5.5
2018-May-24 15:47N 47°21' W 002°55'2 0.1
2018-May-23 17:05N 47°21' W 002°53'3 2.4
2018-May-23 16:03N 47°22' W 002°56'0 5.5
2018-May-23 16:00N 47°22' W 002°56'1 0.0
2018-May-22 18:47N 47°23' W 002°57'0 0.0
2018-May-22 18:26N 47°23' W 002°57'0 0.0
2018-May-22 17:59N 47°23' W 002°57'0 0.0
2018-May-22 17:29N 47°23' W 002°57'0 0.0
2018-May-22 16:59N 47°23' W 002°57'0 0.0
2018-May-22 16:26N 47°23' W 002°57'0 0.0
2018-May-22 15:59N 47°23' W 002°57'0 0.0
2018-May-22 15:29N 47°23' W 002°57'0 0.0
2018-May-22 14:56N 47°23' W 002°57'0 0.0
2018-May-22 14:29N 47°23' W 002°57'0 0.0
2018-May-22 13:56N 47°23' W 002°57'0 0.0
2018-May-22 13:26N 47°23' W 002°57'0 0.0
2018-May-22 12:50N 47°23' W 002°57'0 0.0
2018-May-22 12:29N 47°23' W 002°57'0 0.0
2018-May-22 11:56N 47°23' W 002°57'0 0.0
2018-May-22 11:14N 47°23' W 002°57'0 0.0
2018-May-22 00:44N 47°23' W 002°57'0 0.0
2018-May-21 17:53N 47°23' W 002°57'0 0.0
2018-May-21 17:23N 47°23' W 002°57'0 0.0
2018-May-21 16:59N 47°23' W 002°57'0 0.0
2018-May-21 16:26N 47°23' W 002°57'0 0.0
2018-May-21 15:56N 47°23' W 002°57'0 0.0
2018-May-21 15:29N 47°23' W 002°57'0 0.0
2018-May-21 14:35N 47°23' W 002°57'0 0.0
2018-May-21 14:29N 47°23' W 002°57'2 0.5
2018-May-21 10:04N 47°24' W 002°54'1 6.4
2018-May-21 09:57N 47°24' W 002°53'3 6.2
2018-May-21 09:29N 47°25' W 002°49'  

Dump ship's entire track history